createdAt,value
2023-04-28T05:02:09.944Z,8.38
2023-04-28T05:04:37.395Z,8.00
2023-04-28T05:07:04.456Z,12.55
2023-04-28T05:09:33.423Z,10.73
2023-04-28T05:12:00.990Z,13.85
2023-04-28T05:14:28.018Z,9.45
2023-04-28T05:16:55.354Z,15.90
2023-04-28T05:19:25.690Z,10.45
2023-04-28T05:21:54.611Z,12.75
2023-04-28T05:24:25.938Z,11.57
2023-04-28T05:26:54.019Z,11.40
2023-04-28T05:29:21.899Z,12.77
2023-04-28T05:31:49.191Z,12.75
2023-04-28T05:34:16.528Z,9.02
2023-04-28T05:36:44.990Z,11.05
2023-04-28T05:39:12.972Z,10.63
2023-04-28T05:41:41.715Z,9.00
2023-04-28T05:44:08.605Z,14.73
2023-04-28T05:46:37.194Z,8.30
2023-04-28T05:49:04.025Z,12.63
2023-04-28T05:51:35.648Z,9.60
2023-04-28T05:54:03.092Z,9.88
2023-04-28T05:56:31.314Z,11.00
2023-04-28T05:59:00.830Z,11.45
2023-04-28T06:01:27.961Z,8.95
2023-04-28T06:03:56.703Z,10.27
2023-04-28T06:06:26.356Z,9.48
2023-04-28T06:08:53.846Z,8.60
2023-04-28T06:11:22.796Z,16.20
2023-04-28T06:13:50.768Z,11.40
2023-04-28T06:16:19.301Z,11.32
2023-04-28T06:18:49.574Z,7.97
2023-04-28T06:21:18.464Z,10.27
2023-04-28T06:23:45.139Z,8.88
2023-04-28T06:26:12.458Z,14.60
2023-04-28T06:28:39.940Z,9.02
2023-04-28T06:31:09.238Z,9.85
2023-04-28T06:33:35.771Z,10.98
2023-04-28T06:36:02.719Z,11.07
2023-04-28T06:38:29.350Z,12.45
2023-04-28T06:40:56.683Z,10.73
2023-04-28T06:43:23.532Z,12.02
2023-04-28T06:46:08.586Z,10.05
2023-04-28T06:48:35.828Z,10.52
2023-04-28T06:51:02.728Z,9.95
2023-04-28T06:53:29.273Z,11.60
2023-04-28T06:55:56.800Z,10.57
2023-04-28T06:58:23.434Z,8.38
2023-04-28T07:00:50.993Z,10.48
2023-04-28T07:03:17.629Z,10.52
2023-04-28T07:05:44.954Z,10.88
2023-04-28T07:08:11.560Z,11.10
2023-04-28T07:10:38.444Z,12.75
2023-04-28T07:13:05.011Z,8.52
2023-04-28T07:15:32.255Z,9.20
2023-04-28T07:17:59.099Z,11.18
2023-04-28T07:20:26.174Z,10.98
2023-04-28T07:22:52.693Z,12.52
2023-04-28T07:25:19.956Z,10.23
2023-04-28T07:27:46.980Z,15.50
2023-04-28T07:30:26.676Z,10.88
2023-04-28T07:32:54.826Z,8.75
2023-04-28T07:35:21.469Z,8.90
2023-04-28T07:37:48.637Z,14.13
2023-04-28T07:40:16.064Z,10.32
2023-04-28T07:42:42.916Z,15.65
2023-04-28T07:45:11.694Z,11.35
2023-04-28T07:47:38.428Z,16.50
2023-04-28T07:50:07.016Z,17.80
2023-04-28T07:52:34.256Z,12.07
2023-04-28T07:55:02.831Z,17.48
2023-04-28T07:57:30.292Z,13.20
2023-04-28T07:59:57.643Z,8.98
2023-04-28T08:02:24.308Z,10.15
2023-04-28T08:04:51.720Z,8.98
2023-04-28T08:07:18.581Z,9.93
2023-04-28T08:09:47.896Z,10.93
2023-04-28T08:12:15.527Z,11.35
2023-04-28T08:14:42.370Z,9.85
2023-04-28T08:17:09.366Z,11.57
2023-04-28T08:19:36.850Z,9.35
2023-04-28T08:22:07.132Z,17.15
2023-04-28T08:24:34.759Z,12.13
2023-04-28T08:27:03.130Z,8.07
2023-04-28T08:29:31.925Z,10.15
2023-04-28T08:31:59.222Z,9.57
2023-04-28T08:34:26.420Z,7.47
2023-04-28T08:36:54.144Z,10.68
2023-04-28T08:39:23.726Z,7.15
2023-04-28T08:41:50.700Z,9.98
2023-04-28T08:44:18.041Z,7.43
2023-04-28T08:46:46.690Z,10.68
2023-04-28T08:49:16.980Z,10.23
2023-04-28T08:51:52.488Z,8.65
2023-04-28T08:54:26.487Z,9.57
2023-04-28T08:56:54.288Z,10.60
2023-04-28T08:59:21.816Z,7.68
2023-04-28T09:01:52.455Z,11.38
2023-04-28T09:04:21.262Z,9.55
2023-04-28T09:06:48.312Z,8.52
2023-04-28T09:09:36.229Z,9.30
2023-04-28T09:12:05.048Z,9.60
2023-04-28T09:14:36.431Z,13.15
2023-04-28T09:17:10.628Z,8.32
2023-04-28T09:19:38.523Z,6.38
2023-04-28T09:22:23.960Z,11.27
2023-04-28T09:24:55.609Z,9.23
2023-04-28T09:27:29.202Z,13.75
2023-04-28T09:29:55.970Z,14.13
2023-04-28T09:32:24.788Z,10.23
2023-04-28T09:34:54.457Z,14.27
2023-04-28T09:37:24.258Z,9.05
2023-04-28T09:42:38.926Z,11.23
2023-04-28T09:45:07.697Z,9.68
2023-04-28T09:47:39.552Z,9.77
2023-04-28T09:50:09.536Z,12.13
2023-04-28T09:52:37.058Z,11.35
2023-04-28T09:55:06.143Z,13.13
2023-04-28T09:57:35.371Z,12.23
2023-04-28T10:00:06.470Z,13.43
2023-04-28T10:05:11.375Z,14.05
2023-04-28T10:07:39.529Z,11.02
2023-04-28T10:10:07.580Z,22.35
2023-04-28T10:12:35.285Z,15.65
2023-04-28T10:15:02.080Z,10.40
2023-04-28T10:17:29.876Z,14.32
2023-04-28T10:19:57.369Z,9.93
2023-04-28T10:22:46.251Z,12.38
2023-04-28T10:25:12.707Z,11.50
2023-04-28T10:27:44.895Z,13.85
2023-04-28T10:30:27.269Z,11.35
2023-04-28T10:33:14.243Z,11.93
2023-04-28T10:35:45.104Z,13.40
2023-04-28T10:38:13.880Z,10.57
2023-04-28T10:40:41.666Z,10.10
2023-04-28T10:43:10.870Z,11.63
2023-04-28T10:45:50.372Z,12.00
2023-04-28T10:48:18.529Z,9.65
2023-04-28T10:51:03.601Z,9.77
2023-04-28T10:53:42.955Z,9.80
2023-04-28T10:56:23.572Z,11.77
2023-04-28T10:58:52.700Z,12.75
2023-04-28T11:01:22.303Z,14.73
2023-04-28T11:07:21.979Z,10.88
2023-04-28T11:09:50.012Z,10.52
2023-04-28T11:12:16.577Z,9.65
2023-04-28T11:14:46.943Z,12.10
2023-04-28T11:17:22.617Z,11.50
2023-04-28T11:19:53.897Z,12.00
2023-04-28T11:22:32.349Z,11.65
2023-04-28T11:25:06.006Z,9.90
2023-04-28T11:27:43.498Z,11.43
2023-04-28T11:30:34.121Z,11.77
2023-04-28T11:33:21.518Z,9.73
2023-04-28T11:35:53.972Z,12.48
2023-04-28T11:38:41.476Z,11.15
2023-04-28T11:41:10.722Z,8.60
2023-04-28T11:43:51.744Z,11.00
2023-04-28T11:46:34.628Z,8.32
2023-04-28T11:49:39.044Z,8.63
2023-04-28T11:52:30.410Z,9.27
2023-04-28T11:55:08.632Z,10.10
2023-04-28T11:58:49.087Z,10.35
2023-04-28T12:01:39.368Z,8.93
2023-04-28T12:04:09.971Z,8.85
2023-04-28T12:06:47.948Z,7.45
2023-04-28T12:09:40.669Z,11.90
2023-04-28T12:12:18.928Z,9.75
2023-04-28T12:15:09.986Z,14.68
2023-04-28T12:17:46.418Z,8.40
2023-04-28T12:20:51.864Z,8.80
2023-04-28T12:23:33.812Z,9.63
2023-04-28T12:26:10.434Z,8.35
2023-04-28T12:28:50.732Z,9.25
2023-04-28T12:31:26.577Z,11.02
2023-04-28T12:34:03.141Z,9.85
2023-04-28T12:36:34.536Z,9.43
2023-04-28T12:39:30.738Z,9.85
2023-04-28T12:42:04.681Z,8.88
2023-04-28T12:44:42.036Z,9.07
2023-04-28T12:47:14.929Z,9.10
2023-04-28T12:49:49.999Z,12.40
2023-04-28T12:52:20.824Z,7.95
2023-04-28T12:54:48.717Z,9.18
2023-04-28T12:57:27.948Z,12.25
2023-04-28T13:00:07.028Z,10.82
2023-04-28T13:02:42.353Z,11.68
2023-04-28T13:05:24.775Z,14.25
2023-04-28T13:07:57.614Z,8.38
2023-04-28T13:10:27.643Z,10.13
2023-04-28T13:12:56.374Z,10.30
2023-04-28T13:15:25.932Z,11.52
2023-04-28T13:17:58.212Z,13.00
2023-04-28T13:20:24.966Z,10.70
2023-04-28T13:22:54.457Z,10.82
2023-04-28T13:25:22.226Z,8.55
2023-04-28T13:27:53.781Z,11.32
2023-04-28T13:30:25.742Z,10.98
2023-04-28T13:33:00.602Z,10.02
2023-04-28T13:35:30.083Z,11.43
2023-04-28T13:38:03.243Z,9.85
2023-04-28T13:40:37.077Z,8.52
2023-04-28T13:43:15.733Z,9.43
2023-04-28T13:45:50.384Z,9.60
2023-04-28T13:48:18.696Z,11.30
2023-04-28T13:50:48.837Z,10.85
2023-04-28T13:53:21.587Z,9.60
2023-04-28T13:55:54.036Z,10.88
2023-04-28T13:58:25.283Z,8.50
2023-04-28T14:00:58.977Z,8.50
2023-04-28T14:06:13.508Z,8.95
2023-04-28T14:08:46.139Z,10.70
2023-04-28T14:11:27.356Z,8.43
2023-04-28T14:13:59.654Z,9.82
2023-04-28T14:16:26.516Z,10.50
2023-04-28T14:18:56.358Z,15.45
2023-04-28T14:21:29.271Z,9.85
2023-04-28T14:24:05.258Z,10.60
2023-04-28T14:26:54.849Z,13.68
2023-04-28T14:29:32.507Z,9.13
2023-04-28T14:32:05.835Z,10.30
2023-04-28T14:34:36.305Z,13.18
2023-04-28T14:37:08.356Z,11.23
2023-04-28T14:40:06.209Z,11.55
2023-04-28T14:42:51.509Z,11.95
2023-04-28T14:45:27.025Z,13.48
2023-04-28T14:48:13.389Z,12.00
2023-04-28T14:50:47.219Z,10.32
2023-04-28T14:53:17.460Z,14.55
2023-04-28T14:58:44.178Z,12.80
2023-04-28T15:01:52.170Z,14.38
2023-04-28T15:04:20.772Z,14.18
2023-04-28T15:06:48.206Z,12.20
2023-04-28T15:09:22.998Z,14.32
2023-04-28T15:11:57.141Z,13.00
2023-04-28T15:14:35.346Z,15.70
2023-04-28T15:17:34.861Z,14.88
2023-04-28T15:23:08.788Z,15.88
2023-04-28T15:25:47.848Z,16.08
2023-04-28T15:28:22.446Z,14.77
2023-04-28T15:30:52.722Z,16.00
2023-04-28T15:33:22.439Z,14.43
2023-04-28T15:35:52.706Z,16.63
2023-04-28T15:38:34.990Z,14.68
2023-04-28T15:41:20.022Z,14.38
2023-04-28T15:43:51.898Z,12.20
2023-04-28T15:52:14.363Z,12.60
2023-04-28T15:54:53.960Z,15.98
2023-04-28T15:57:56.135Z,13.00
2023-04-28T16:00:31.297Z,14.73
2023-04-28T16:03:01.764Z,15.52
2023-04-28T16:05:33.807Z,9.50
2023-04-28T16:08:04.058Z,13.15
2023-04-28T16:10:37.522Z,11.48
2023-04-28T16:13:06.643Z,12.25
2023-04-28T16:15:34.711Z,13.88
2023-04-28T16:20:49.868Z,12.50
2023-04-28T16:23:23.193Z,12.65
2023-04-28T16:25:50.991Z,13.75
2023-04-28T16:28:18.238Z,11.38
2023-04-28T16:30:45.578Z,12.50
2023-04-28T16:33:12.878Z,14.80
2023-04-28T16:35:39.993Z,12.27
2023-04-28T16:38:06.758Z,13.48
2023-04-28T16:40:33.850Z,16.48
2023-04-28T16:43:00.735Z,15.80
2023-04-28T16:45:28.259Z,12.38
2023-04-28T16:47:55.333Z,14.65
2023-04-28T16:50:29.012Z,14.60
2023-04-28T16:52:58.503Z,19.80
2023-04-28T16:55:27.175Z,15.75
2023-04-28T16:58:01.643Z,13.40
2023-04-28T17:00:29.372Z,16.60
2023-04-28T17:02:58.369Z,16.55
2023-04-28T17:05:28.039Z,16.33
2023-04-28T17:07:59.441Z,18.13
2023-04-28T17:10:27.007Z,17.92
2023-04-28T17:12:53.663Z,17.80
2023-04-28T17:15:21.245Z,17.80
2023-04-28T17:17:51.602Z,16.33
2023-04-28T17:20:22.862Z,17.83
2023-04-28T17:22:50.281Z,16.55
2023-04-28T17:25:17.419Z,16.58
2023-04-28T17:27:44.008Z,16.20
2023-04-28T17:30:11.501Z,20.02
2023-04-28T17:32:38.356Z,18.52
2023-04-28T17:35:06.319Z,18.35
2023-04-28T17:37:34.037Z,23.45
2023-04-28T17:40:01.842Z,19.05
2023-04-28T17:42:31.861Z,13.45
2023-04-28T17:44:59.216Z,13.15
2023-04-28T17:47:26.018Z,11.88
2023-04-28T17:49:53.273Z,12.15
2023-04-28T17:52:21.341Z,12.55
2023-04-28T17:54:50.595Z,13.57
2023-04-28T17:57:18.654Z,11.27
2023-04-28T18:00:37.673Z,10.52
2023-04-28T18:03:04.423Z,9.82
2023-04-28T18:05:32.518Z,9.15
2023-04-28T18:08:03.569Z,7.88
2023-04-28T18:10:31.616Z,8.45
2023-04-28T18:12:59.081Z,7.28
2023-04-28T18:15:26.540Z,7.45
2023-04-28T18:17:53.095Z,5.68
2023-04-28T18:20:20.413Z,6.22
2023-04-28T18:22:47.161Z,5.82
2023-04-28T18:25:16.984Z,9.35
2023-04-28T18:27:43.765Z,7.50
2023-04-28T18:30:11.166Z,8.50
2023-04-28T18:32:37.731Z,7.35
2023-04-28T18:35:05.184Z,5.82
2023-04-28T18:37:31.778Z,6.40
2023-04-28T18:39:59.119Z,6.13
2023-04-28T18:42:27.344Z,8.73
2023-04-28T18:44:56.903Z,6.95
2023-04-28T18:47:23.925Z,6.40
2023-04-28T18:49:52.151Z,6.10
2023-04-28T18:52:18.763Z,6.75
2023-04-28T18:54:46.179Z,7.10
2023-04-28T18:57:12.850Z,7.85
2023-04-28T18:59:39.958Z,8.38
2023-04-28T19:02:06.713Z,6.50
2023-04-28T19:04:34.420Z,8.00
2023-04-28T19:07:01.282Z,6.75
2023-04-28T19:09:28.453Z,7.07
2023-04-28T19:11:55.062Z,6.68
2023-04-28T19:14:22.233Z,8.90
2023-04-28T19:16:48.915Z,7.40
2023-04-28T19:19:16.236Z,7.43
2023-04-28T19:21:44.612Z,6.85
2023-04-28T19:24:12.898Z,7.90
2023-04-28T19:26:39.604Z,6.72
2023-04-28T19:29:06.948Z,8.38
2023-04-28T19:31:33.506Z,6.60
2023-04-28T19:34:00.738Z,5.80
2023-04-28T19:36:28.226Z,8.38
2023-04-28T19:38:55.461Z,9.70
2023-04-28T19:41:22.086Z,10.65
2023-04-28T19:43:49.239Z,8.82
2023-04-28T19:46:16.887Z,8.02
2023-04-28T19:48:46.921Z,7.63
2023-04-28T19:53:41.588Z,9.27
2023-04-28T19:56:10.093Z,9.07
2023-04-28T19:58:37.940Z,8.30
2023-04-28T20:01:07.850Z,8.15
2023-04-28T20:03:36.316Z,8.52
2023-04-28T20:06:03.753Z,9.98
2023-04-28T20:08:31.045Z,9.45
2023-04-28T20:10:58.106Z,8.35
2023-04-28T20:13:27.225Z,9.88
2023-04-28T20:15:54.988Z,8.98
2023-04-28T20:18:22.324Z,10.05
2023-04-28T20:20:52.501Z,10.13
2023-04-28T20:23:19.932Z,11.05
2023-04-28T20:25:46.992Z,8.55
2023-04-28T20:28:14.300Z,9.30
